Terminal Aerodrome Forecast
Issued by NWS

Home | Current Version | Previous Version | Text Only | Print | Product List | Glossary On
Versions: 1 2 3 4 5 6 7 8 9 10 11 12 13 14 15 16 17 18 19 20 21 22 23 24 25 26 27 28 29 30 31 32
000
FTUS43 KMKX 061407 AAB
TAFUES
TAF AMD
KUES 061407Z 0614/0712 20005KT P6SM BKN250
     FM061500 20010KT P6SM SCT040 BKN150
     FM061900 20010G17KT P6SM VCTS BKN035CB
     FM070000 20009KT P6SM BKN120
     FM070200 20008KT P6SM TSRA OVC035CB
     FM070500 24007KT P6SM TSRA OVC025CB
     FM070900 32009KT P6SM OVC008=

USA.gov is the U.S. government's official web portal to all federal, state and local government web resources and services.